createdAt,value
2022-07-30T00:00:56.612Z,25.48
2022-07-30T00:03:24.813Z,25.40
2022-07-30T00:05:54.682Z,26.30
2022-07-30T00:08:24.604Z,24.63
2022-07-30T00:10:53.112Z,26.05
2022-07-30T00:13:21.467Z,24.95
2022-07-30T00:15:49.509Z,24.55
2022-07-30T00:18:17.610Z,24.88
2022-07-30T00:20:45.639Z,24.70
2022-07-30T00:23:13.667Z,24.05
2022-07-30T00:25:43.148Z,24.65
2022-07-30T00:28:11.503Z,24.33
2022-07-30T00:30:40.776Z,24.17
2022-07-30T00:33:08.951Z,24.88
2022-07-30T00:35:37.430Z,24.55
2022-07-30T00:38:08.391Z,23.67
2022-07-30T00:40:36.404Z,24.52
2022-07-30T00:43:07.139Z,24.20
2022-07-30T00:45:35.827Z,24.27
2022-07-30T00:48:03.934Z,24.10
2022-07-30T00:50:31.971Z,23.65
2022-07-30T00:52:59.907Z,22.77
2022-07-30T00:55:27.955Z,22.63
2022-07-30T00:57:56.076Z,22.60
2022-07-30T01:00:26.757Z,21.85
2022-07-30T01:02:54.807Z,22.67
2022-07-30T01:05:23.977Z,22.48
2022-07-30T01:07:52.433Z,22.58
2022-07-30T01:10:20.278Z,23.55
2022-07-30T01:12:48.313Z,22.50
2022-07-30T01:15:17.189Z,22.90
2022-07-30T01:17:52.825Z,23.17
2022-07-30T01:20:26.903Z,22.58
2022-07-30T01:23:02.432Z,23.23
2022-07-30T01:25:53.174Z,23.95
2022-07-30T01:28:28.097Z,23.35
2022-07-30T01:30:57.857Z,23.00
2022-07-30T01:33:27.391Z,22.98
2022-07-30T01:35:56.961Z,22.15
2022-07-30T01:38:26.660Z,21.00
2022-07-30T01:40:57.158Z,22.30
2022-07-30T01:43:27.010Z,22.42
2022-07-30T01:45:56.489Z,20.67
2022-07-30T01:48:27.628Z,22.38
2022-07-30T01:50:57.484Z,21.90
2022-07-30T01:53:28.010Z,22.38
2022-07-30T01:55:59.042Z,22.05
2022-07-30T01:58:30.589Z,22.10
2022-07-30T02:00:59.284Z,21.58
2022-07-30T02:03:27.831Z,21.58
2022-07-30T02:06:01.592Z,21.88
2022-07-30T02:08:35.470Z,22.73
2022-07-30T02:11:08.725Z,21.20
2022-07-30T02:13:46.077Z,22.10
2022-07-30T02:16:18.603Z,22.58
2022-07-30T02:19:06.066Z,21.85
2022-07-30T02:21:39.328Z,21.75
2022-07-30T02:24:23.325Z,22.23
2022-07-30T02:26:57.128Z,21.33
2022-07-30T02:29:26.259Z,20.33
2022-07-30T02:31:57.785Z,21.15
2022-07-30T02:34:26.840Z,21.65
2022-07-30T02:36:56.085Z,21.52
2022-07-30T02:39:24.291Z,20.48
2022-07-30T02:41:54.888Z,19.67
2022-07-30T02:44:25.505Z,21.08
2022-07-30T02:46:54.927Z,19.98
2022-07-30T02:49:25.279Z,21.17
2022-07-30T02:51:53.705Z,21.27
2022-07-30T02:54:24.016Z,20.70
2022-07-30T02:56:54.410Z,22.25
2022-07-30T02:59:25.033Z,22.42
2022-07-30T03:01:53.927Z,23.40
2022-07-30T03:04:23.048Z,21.30
2022-07-30T03:06:53.781Z,22.33
2022-07-30T03:09:22.419Z,22.67
2022-07-30T03:11:55.023Z,23.42
2022-07-30T03:14:23.171Z,22.58
2022-07-30T03:16:57.633Z,23.48
2022-07-30T03:19:29.615Z,22.58
2022-07-30T03:21:58.235Z,20.77
2022-07-30T03:24:26.792Z,22.05
2022-07-30T03:26:58.057Z,22.70
2022-07-30T03:29:28.234Z,22.05
2022-07-30T03:31:56.564Z,23.73
2022-07-30T03:34:25.320Z,23.40
2022-07-30T03:36:54.002Z,24.00
2022-07-30T03:39:23.465Z,22.00
2022-07-30T03:41:54.677Z,22.17
2022-07-30T03:44:25.056Z,21.23
2022-07-30T03:46:54.468Z,23.50
2022-07-30T03:49:24.447Z,23.27
2022-07-30T03:51:53.387Z,23.45
2022-07-30T03:54:22.443Z,23.58
2022-07-30T03:56:50.601Z,23.38
2022-07-30T03:59:18.721Z,24.20
2022-07-30T04:01:48.129Z,22.52
2022-07-30T04:04:16.364Z,22.70
2022-07-30T04:06:44.414Z,22.60
2022-07-30T04:09:15.936Z,22.15
2022-07-30T04:11:44.002Z,22.83
2022-07-30T04:14:12.419Z,23.33
2022-07-30T04:16:45.580Z,22.42
2022-07-30T04:19:19.648Z,21.83
2022-07-30T04:21:49.263Z,22.15
2022-07-30T04:24:18.799Z,22.15
2022-07-30T04:26:49.873Z,22.10
2022-07-30T04:29:24.135Z,19.85
2022-07-30T04:31:54.550Z,19.88
2022-07-30T04:34:24.075Z,20.38
2022-07-30T04:36:52.112Z,20.90
2022-07-30T04:39:20.151Z,20.45
2022-07-30T04:41:48.665Z,19.80
2022-07-30T04:44:17.530Z,18.25
2022-07-30T04:46:45.578Z,16.38
2022-07-30T04:49:15.013Z,16.80
2022-07-30T04:51:45.660Z,16.25
2022-07-30T04:54:16.308Z,16.67
2022-07-30T04:57:00.826Z,15.60
2022-07-30T04:59:29.038Z,15.68
2022-07-30T05:02:00.095Z,16.63
2022-07-30T05:04:30.098Z,14.07
2022-07-30T05:07:01.277Z,16.05
2022-07-30T05:09:31.039Z,14.65
2022-07-30T05:11:59.374Z,16.83
2022-07-30T05:14:28.663Z,16.45
2022-07-30T05:16:56.857Z,14.80
2022-07-30T05:19:25.163Z,15.85
2022-07-30T05:21:53.850Z,13.75
2022-07-30T05:24:23.180Z,13.90
2022-07-30T05:26:51.396Z,12.13
2022-07-30T05:29:20.289Z,14.38
2022-07-30T05:31:49.652Z,16.58
2022-07-30T05:34:17.862Z,12.05
2022-07-30T05:36:46.176Z,12.52
2022-07-30T05:39:14.432Z,11.82
2022-07-30T05:41:43.909Z,12.00
2022-07-30T05:44:11.956Z,12.82
2022-07-30T05:46:40.090Z,12.55
2022-07-30T05:49:08.398Z,12.90
2022-07-30T05:51:36.410Z,14.07
2022-07-30T05:54:04.515Z,13.80
2022-07-30T05:56:32.510Z,14.63
2022-07-30T05:59:02.046Z,11.25
2022-07-30T06:01:30.107Z,12.02
2022-07-30T06:03:58.147Z,12.65
2022-07-30T06:06:26.159Z,11.82
2022-07-30T06:08:54.124Z,11.20
2022-07-30T06:11:22.188Z,12.75
2022-07-30T06:13:50.181Z,13.60
2022-07-30T06:16:19.708Z,13.80
2022-07-30T06:18:47.818Z,11.88
2022-07-30T06:21:15.877Z,13.32
2022-07-30T06:23:43.859Z,11.35
2022-07-30T06:26:11.830Z,9.25
2022-07-30T06:28:39.988Z,11.77
2022-07-30T06:31:08.170Z,9.20
2022-07-30T06:33:37.646Z,12.70
2022-07-30T06:36:06.017Z,8.57
2022-07-30T06:38:34.493Z,6.80
2022-07-30T06:41:04.404Z,8.80
2022-07-30T06:43:32.795Z,7.53
2022-07-30T06:46:01.236Z,8.65
2022-07-30T06:48:31.451Z,9.77
2022-07-30T06:51:01.039Z,10.63
2022-07-30T06:53:29.105Z,8.20
2022-07-30T06:56:00.625Z,7.45
2022-07-30T06:58:29.617Z,10.45
2022-07-30T07:00:57.739Z,7.88
2022-07-30T07:03:26.295Z,11.77
2022-07-30T07:06:09.760Z,9.85
2022-07-30T07:08:38.503Z,8.57
2022-07-30T07:11:06.597Z,10.57
2022-07-30T07:13:34.507Z,9.85
2022-07-30T07:16:02.659Z,9.82
2022-07-30T07:18:30.695Z,8.55
2022-07-30T07:20:58.659Z,7.75
2022-07-30T07:23:39.719Z,6.70
2022-07-30T07:26:11.590Z,8.10
2022-07-30T07:28:41.087Z,6.88
2022-07-30T07:31:10.021Z,7.80
2022-07-30T07:33:39.349Z,7.38
2022-07-30T07:36:07.827Z,8.90
2022-07-30T07:38:38.136Z,8.05
2022-07-30T07:41:06.454Z,4.60
2022-07-30T07:43:34.522Z,3.33
2022-07-30T07:46:02.683Z,6.03
2022-07-30T07:48:30.774Z,4.80
2022-07-30T07:51:00.599Z,4.80
2022-07-30T07:53:29.011Z,6.00
2022-07-30T07:55:58.787Z,5.07
2022-07-30T07:58:27.242Z,4.40
2022-07-30T08:00:55.766Z,5.88
2022-07-30T08:03:24.048Z,6.60
2022-07-30T08:06:01.052Z,6.28
2022-07-30T08:08:36.645Z,5.88
2022-07-30T08:11:07.493Z,6.07
2022-07-30T08:13:48.608Z,2.92
2022-07-30T08:16:21.147Z,2.65
2022-07-30T08:18:49.396Z,4.70
2022-07-30T08:21:17.787Z,7.07
2022-07-30T08:23:45.752Z,3.80
2022-07-30T08:26:15.293Z,4.45
2022-07-30T08:28:45.561Z,2.55
2022-07-30T08:31:13.777Z,3.72
2022-07-30T08:33:41.812Z,3.47
2022-07-30T08:36:10.490Z,2.63
2022-07-30T08:38:39.353Z,4.60
2022-07-30T08:41:07.703Z,2.92
2022-07-30T08:43:37.600Z,6.63
2022-07-30T08:46:09.296Z,3.05
2022-07-30T08:48:37.577Z,5.97
2022-07-30T08:51:05.863Z,3.75
2022-07-30T08:53:35.543Z,3.08
2022-07-30T08:56:03.789Z,3.67
2022-07-30T08:58:35.001Z,5.68
2022-07-30T09:01:07.834Z,3.58
2022-07-30T09:03:43.956Z,4.65
2022-07-30T09:06:13.259Z,3.63
2022-07-30T09:08:42.658Z,4.30
2022-07-30T09:11:10.708Z,2.40
2022-07-30T09:13:41.680Z,4.18
2022-07-30T09:16:21.255Z,3.72
2022-07-30T09:18:50.153Z,3.90
2022-07-30T09:21:20.883Z,7.57
2022-07-30T09:23:59.646Z,4.50
2022-07-30T09:26:28.005Z,4.28
2022-07-30T09:29:15.723Z,3.08
2022-07-30T09:31:56.514Z,4.10
2022-07-30T09:34:32.448Z,3.17
2022-07-30T09:37:02.185Z,3.40
2022-07-30T09:39:31.796Z,4.80
2022-07-30T09:42:00.410Z,3.88
2022-07-30T09:44:30.232Z,5.05
2022-07-30T09:47:01.273Z,3.78
2022-07-30T09:49:32.937Z,5.55
2022-07-30T09:52:01.109Z,3.25
2022-07-30T09:54:50.617Z,3.92
2022-07-30T09:57:25.972Z,3.58
2022-07-30T10:00:19.667Z,4.22
2022-07-30T10:02:53.335Z,6.07
2022-07-30T10:05:22.596Z,3.70
2022-07-30T10:07:53.698Z,4.18
2022-07-30T10:10:25.800Z,5.47
2022-07-30T10:13:04.539Z,3.95
2022-07-30T10:15:34.945Z,3.17
2022-07-30T10:18:05.996Z,5.03
2022-07-30T10:20:35.637Z,6.25
2022-07-30T10:23:08.204Z,2.88
2022-07-30T10:25:54.963Z,2.92
2022-07-30T10:28:24.028Z,3.05
2022-07-30T10:30:52.418Z,4.68
2022-07-30T10:33:36.584Z,2.78
2022-07-30T10:36:11.683Z,5.38
2022-07-30T10:38:43.211Z,2.65
2022-07-30T10:41:42.619Z,4.90
2022-07-30T10:44:41.024Z,3.75
2022-07-30T10:47:10.923Z,5.00
2022-07-30T10:49:43.350Z,3.38
2022-07-30T10:52:12.690Z,4.85
2022-07-30T10:54:42.554Z,5.30
2022-07-30T10:57:15.136Z,4.07
2022-07-30T11:00:12.129Z,3.40
2022-07-30T11:03:01.819Z,4.50
2022-07-30T11:05:45.900Z,7.55
2022-07-30T11:08:36.379Z,3.92
2022-07-30T11:12:05.573Z,4.97
2022-07-30T11:14:20.324Z,6.93
2022-07-30T11:17:09.196Z,3.47
2022-07-30T11:20:01.835Z,4.95
2022-07-30T11:22:38.304Z,4.63
2022-07-30T11:25:12.759Z,6.68
2022-07-30T11:27:45.519Z,4.85
2022-07-30T11:30:36.008Z,3.33
2022-07-30T11:33:33.141Z,5.75
2022-07-30T11:36:12.793Z,5.60
2022-07-30T11:38:56.624Z,4.82
2022-07-30T11:41:28.091Z,7.00
2022-07-30T11:44:30.393Z,7.43
2022-07-30T11:46:58.877Z,7.75
2022-07-30T11:49:27.269Z,4.78
2022-07-30T11:51:55.318Z,5.72
2022-07-30T11:54:26.073Z,6.22
2022-07-30T11:57:02.168Z,4.75
2022-07-30T11:59:33.467Z,6.25
2022-07-30T12:02:02.345Z,6.75
2022-07-30T12:04:31.307Z,4.82
2022-07-30T12:06:59.577Z,5.50
2022-07-30T12:09:29.431Z,5.72
2022-07-30T12:11:57.869Z,4.72
2022-07-30T12:14:26.318Z,7.90
2022-07-30T12:16:55.588Z,6.78
2022-07-30T12:19:26.965Z,7.57
2022-07-30T12:22:02.846Z,6.95
2022-07-30T12:24:32.273Z,7.75
2022-07-30T12:27:06.394Z,5.18
2022-07-30T12:29:35.798Z,10.32
2022-07-30T12:32:04.238Z,6.32
2022-07-30T12:34:33.640Z,7.38
2022-07-30T12:37:09.882Z,5.45
2022-07-30T12:39:40.502Z,5.75
2022-07-30T12:42:08.951Z,7.40
2022-07-30T12:44:38.718Z,4.85
2022-07-30T12:47:08.341Z,4.32
2022-07-30T12:49:48.907Z,4.88
2022-07-30T12:52:27.823Z,5.03
2022-07-30T12:55:08.753Z,6.20
2022-07-30T12:58:01.717Z,3.08
2022-07-30T13:00:36.121Z,7.95
2022-07-30T13:03:20.242Z,5.53
2022-07-30T13:05:50.081Z,5.88
2022-07-30T13:08:18.691Z,4.45
2022-07-30T13:10:59.785Z,5.25
2022-07-30T13:13:27.903Z,10.02
2022-07-30T13:16:00.719Z,7.82
2022-07-30T13:18:30.335Z,4.60
2022-07-30T13:20:58.851Z,5.47
2022-07-30T13:23:27.533Z,4.82
2022-07-30T13:25:57.662Z,8.68
2022-07-30T13:28:26.004Z,4.82
2022-07-30T13:30:54.119Z,6.95
2022-07-30T13:33:24.129Z,5.03
2022-07-30T13:35:52.153Z,7.05
2022-07-30T13:38:20.097Z,7.18
2022-07-30T13:40:48.439Z,5.10
2022-07-30T13:43:17.836Z,5.55
2022-07-30T13:45:45.808Z,5.45
2022-07-30T13:48:14.163Z,4.85
2022-07-30T13:50:42.284Z,7.20
2022-07-30T13:53:11.320Z,6.60
2022-07-30T13:55:41.275Z,5.70
2022-07-30T13:58:09.979Z,4.35
2022-07-30T14:00:40.364Z,6.22
2022-07-30T14:03:11.690Z,5.82
2022-07-30T14:05:42.070Z,6.10
2022-07-30T14:08:11.887Z,5.57
2022-07-30T14:10:40.858Z,7.20
2022-07-30T14:13:15.978Z,7.18
2022-07-30T14:15:50.713Z,5.72
2022-07-30T14:18:18.686Z,5.95
2022-07-30T14:20:48.902Z,7.93
2022-07-30T14:23:17.543Z,4.35
2022-07-30T14:25:45.997Z,6.10
2022-07-30T14:28:14.200Z,8.00
2022-07-30T14:30:42.586Z,5.72
2022-07-30T14:33:12.100Z,4.15
2022-07-30T14:35:40.190Z,5.45
2022-07-30T14:38:08.152Z,5.18
2022-07-30T14:40:36.264Z,3.90
2022-07-30T14:43:04.247Z,7.05
2022-07-30T14:45:35.549Z,6.20
2022-07-30T14:48:03.608Z,7.18
2022-07-30T14:50:33.065Z,4.72
2022-07-30T14:53:01.631Z,4.68
2022-07-30T14:55:29.769Z,6.50
2022-07-30T14:57:57.917Z,5.28
2022-07-30T15:00:26.082Z,4.15
2022-07-30T15:02:54.186Z,5.78
2022-07-30T15:05:22.217Z,6.82
2022-07-30T15:07:52.312Z,6.72
2022-07-30T15:10:24.971Z,7.75
2022-07-30T15:12:53.183Z,4.78
2022-07-30T15:15:21.964Z,8.07
2022-07-30T15:17:51.980Z,6.50
2022-07-30T15:20:20.242Z,7.05
2022-07-30T15:22:48.545Z,6.75
2022-07-30T15:25:18.076Z,11.02
2022-07-30T15:27:46.412Z,7.32
2022-07-30T15:30:14.677Z,5.55
2022-07-30T15:32:47.386Z,5.50
2022-07-30T15:35:15.309Z,7.07
2022-07-30T15:37:43.328Z,7.85
2022-07-30T15:40:11.640Z,7.78
2022-07-30T15:42:42.642Z,8.10
2022-07-30T15:45:18.858Z,5.05
2022-07-30T15:47:47.628Z,6.97
2022-07-30T15:50:16.743Z,6.45
2022-07-30T15:52:45.286Z,7.10
2022-07-30T15:55:13.405Z,9.45
2022-07-30T15:57:44.903Z,8.05
2022-07-30T16:00:14.250Z,7.82
2022-07-30T16:02:43.501Z,7.13
2022-07-30T16:05:14.152Z,9.20
2022-07-30T16:07:43.489Z,9.05
2022-07-30T16:10:11.976Z,7.25
2022-07-30T16:12:40.177Z,7.88
2022-07-30T16:15:11.555Z,6.47
2022-07-30T16:17:40.101Z,5.35
2022-07-30T16:20:10.364Z,13.13
2022-07-30T16:22:38.290Z,5.93
2022-07-30T16:25:06.999Z,5.72
2022-07-30T16:27:35.009Z,6.32
2022-07-30T16:30:03.192Z,7.15
2022-07-30T16:32:32.516Z,8.25
2022-07-30T16:35:00.521Z,9.60
2022-07-30T16:37:28.609Z,6.93
2022-07-30T16:39:56.663Z,7.43
2022-07-30T16:42:24.674Z,5.10
2022-07-30T16:44:52.770Z,5.65
2022-07-30T16:47:20.780Z,6.35
2022-07-30T16:49:50.144Z,10.48
2022-07-30T16:52:18.365Z,7.18
2022-07-30T16:54:46.817Z,5.22
2022-07-30T16:57:15.707Z,7.07
2022-07-30T16:59:43.941Z,7.43
2022-07-30T17:02:12.355Z,5.65
2022-07-30T17:04:41.569Z,8.18
2022-07-30T17:07:11.117Z,6.63
2022-07-30T17:09:39.067Z,3.35
2022-07-30T17:12:12.010Z,6.47
2022-07-30T17:14:40.571Z,8.57
2022-07-30T17:17:13.714Z,8.32
2022-07-30T17:19:42.392Z,6.35
2022-07-30T17:22:11.855Z,8.30
2022-07-30T17:24:40.050Z,7.03
2022-07-30T17:27:08.170Z,6.75
2022-07-30T17:29:38.776Z,4.35
2022-07-30T17:32:18.782Z,8.80
2022-07-30T17:34:47.030Z,5.38
2022-07-30T17:37:16.455Z,7.15
2022-07-30T17:40:19.605Z,6.18
2022-07-30T17:42:32.453Z,9.07
2022-07-30T17:45:01.332Z,8.43
2022-07-30T17:47:29.368Z,7.10
2022-07-30T17:49:57.370Z,7.18
2022-07-30T17:52:27.334Z,7.55
2022-07-30T17:54:55.393Z,11.00
2022-07-30T17:57:23.591Z,6.95
2022-07-30T17:59:51.618Z,8.85
2022-07-30T18:02:20.103Z,7.93
2022-07-30T18:04:56.555Z,8.05
2022-07-30T18:07:26.577Z,6.03
2022-07-30T18:09:54.856Z,7.95
2022-07-30T18:12:22.991Z,6.60
2022-07-30T18:14:51.115Z,6.88
2022-07-30T18:17:19.086Z,6.68
2022-07-30T18:19:47.016Z,6.85
2022-07-30T18:22:16.602Z,7.57
2022-07-30T18:25:01.031Z,9.30
2022-07-30T18:27:29.850Z,8.68
2022-07-30T18:29:59.322Z,7.93
2022-07-30T18:32:27.734Z,9.45
2022-07-30T18:34:55.811Z,7.70
2022-07-30T18:37:26.019Z,7.10
2022-07-30T18:40:12.787Z,6.60
2022-07-30T18:42:41.552Z,8.30
2022-07-30T18:45:13.788Z,5.68
2022-07-30T18:47:42.173Z,10.18
2022-07-30T18:50:10.837Z,7.15
2022-07-30T18:52:39.125Z,9.38
2022-07-30T18:55:09.054Z,7.93
2022-07-30T18:57:38.669Z,9.27
2022-07-30T19:00:09.854Z,7.90
2022-07-30T19:02:57.799Z,5.38
2022-07-30T19:05:25.936Z,9.25
2022-07-30T19:07:57.642Z,6.40
2022-07-30T19:10:27.110Z,5.68
2022-07-30T19:12:56.762Z,7.15
2022-07-30T19:15:25.002Z,8.18
2022-07-30T19:17:53.190Z,5.00
2022-07-30T19:20:23.218Z,6.50
2022-07-30T19:23:00.564Z,5.57
2022-07-30T19:25:28.996Z,9.43
2022-07-30T19:28:02.056Z,8.18
2022-07-30T19:30:30.660Z,6.85
2022-07-30T19:33:04.450Z,7.28
2022-07-30T19:35:32.559Z,6.15
2022-07-30T19:38:00.659Z,6.00
2022-07-30T19:40:29.418Z,7.22
2022-07-30T19:43:06.378Z,6.05
2022-07-30T19:45:46.931Z,8.27
2022-07-30T19:51:07.030Z,7.13
2022-07-30T19:53:48.112Z,8.30
2022-07-30T19:56:16.119Z,9.82
2022-07-30T19:58:45.637Z,7.70
2022-07-30T20:01:14.702Z,12.20
2022-07-30T20:03:45.231Z,7.07
2022-07-30T20:06:16.126Z,8.98
2022-07-30T20:08:45.236Z,6.95
2022-07-30T20:11:21.229Z,6.50
2022-07-30T20:14:04.063Z,7.93
2022-07-30T20:16:32.160Z,7.00
2022-07-30T20:19:00.071Z,8.27
2022-07-30T20:21:56.361Z,6.85
2022-07-30T20:24:19.430Z,9.20
2022-07-30T20:26:49.230Z,9.85
2022-07-30T20:29:20.837Z,7.15
2022-07-30T20:32:00.402Z,10.13
2022-07-30T20:34:30.738Z,5.05
2022-07-30T20:37:15.057Z,8.00
2022-07-30T20:39:51.621Z,4.07
2022-07-30T20:42:21.836Z,6.68
2022-07-30T20:44:56.839Z,6.20
2022-07-30T20:47:38.120Z,6.13
2022-07-30T20:50:11.753Z,5.07
2022-07-30T20:52:44.949Z,9.98
2022-07-30T20:55:16.642Z,4.47
2022-07-30T20:57:58.746Z,4.28
2022-07-30T21:00:36.652Z,4.75
2022-07-30T21:03:05.499Z,3.58
2022-07-30T21:05:35.558Z,6.07
2022-07-30T21:08:03.834Z,4.38
2022-07-30T21:10:35.394Z,3.58
2022-07-30T21:13:07.462Z,5.75
2022-07-30T21:15:37.200Z,2.58
2022-07-30T21:18:25.200Z,3.38
2022-07-30T21:20:54.580Z,4.00
2022-07-30T21:23:26.073Z,2.67
2022-07-30T21:26:00.908Z,4.40
2022-07-30T21:28:35.179Z,4.88
2022-07-30T21:33:53.677Z,4.13
2022-07-30T21:36:25.003Z,7.35
2022-07-30T21:38:53.172Z,4.28
2022-07-30T21:41:39.909Z,6.53
2022-07-30T21:44:09.932Z,4.80
2022-07-30T21:46:41.860Z,4.57
2022-07-30T21:49:09.999Z,7.45
2022-07-30T21:51:39.717Z,4.68
2022-07-30T21:54:08.821Z,5.60
2022-07-30T21:56:41.639Z,3.78
2022-07-30T21:59:09.925Z,5.30
2022-07-30T22:01:47.597Z,5.70
2022-07-30T22:04:16.542Z,7.18
2022-07-30T22:06:44.588Z,5.13
2022-07-30T22:12:10.014Z,4.03
2022-07-30T22:14:40.506Z,6.78
2022-07-30T22:17:22.828Z,4.20
2022-07-30T22:19:58.009Z,4.53
2022-07-30T22:22:30.122Z,4.50
2022-07-30T22:25:03.660Z,8.10
2022-07-30T22:27:39.908Z,7.72
2022-07-30T22:30:09.664Z,8.43
2022-07-30T22:32:39.390Z,5.85
2022-07-30T22:35:08.711Z,6.63
2022-07-30T22:37:38.051Z,8.05
2022-07-30T22:40:08.122Z,5.68
2022-07-30T22:42:49.920Z,4.57
2022-07-30T22:45:46.669Z,5.53
2022-07-30T22:48:11.061Z,6.97
2022-07-30T22:50:40.312Z,6.03
2022-07-30T22:53:23.636Z,8.10
2022-07-30T22:55:58.917Z,9.57
2022-07-30T22:58:28.855Z,7.45
2022-07-30T23:00:57.667Z,4.85
2022-07-30T23:03:27.123Z,4.93
2022-07-30T23:05:56.901Z,7.60
2022-07-30T23:08:30.040Z,6.03
2022-07-30T23:11:00.961Z,5.80
2022-07-30T23:12:15.152Z,5.18
2022-07-30T23:12:27.317Z,4.22
2022-07-30T23:12:28.284Z,4.25
2022-07-30T23:13:29.292Z,5.95
2022-07-30T23:15:57.419Z,9.40
2022-07-30T23:18:26.752Z,6.55
2022-07-30T23:20:58.542Z,5.85
2022-07-30T23:23:30.757Z,9.75
2022-07-30T23:25:59.057Z,7.55
2022-07-30T23:28:27.103Z,7.40
2022-07-30T23:30:55.073Z,7.65
2022-07-30T23:33:23.255Z,7.10
2022-07-30T23:35:53.006Z,7.75
2022-07-30T23:38:21.039Z,12.32
2022-07-30T23:40:49.137Z,8.82
2022-07-30T23:43:17.234Z,11.10
2022-07-30T23:45:45.302Z,5.50
2022-07-30T23:48:13.404Z,6.82
2022-07-30T23:50:41.438Z,8.77
2022-07-30T23:53:11.043Z,7.60
2022-07-30T23:55:39.478Z,11.00
2022-07-30T23:58:07.540Z,8.52
